sensor_id;sensor_type;location;lat;lon;timestamp;P1;durP1;ratioP1;P2;durP2;ratioP2
20792;SDS011;10556;-33.662;151.094;2024-01-27T00:03:00;5.57;;;0.97;;
20792;SDS011;10556;-33.662;151.094;2024-01-27T00:08:03;6.70;;;1.43;;
20792;SDS011;10556;-33.662;151.094;2024-01-27T00:13:07;5.00;;;1.17;;
20792;SDS011;10556;-33.662;151.094;2024-01-27T00:18:10;3.43;;;0.73;;
20792;SDS011;10556;-33.662;151.094;2024-01-27T00:23:12;5.43;;;0.90;;
20792;SDS011;10556;-33.662;151.094;2024-01-27T00:28:16;6.83;;;0.90;;
20792;SDS011;10556;-33.662;151.094;2024-01-27T00:33:19;9.70;;;1.83;;
20792;SDS011;10556;-33.662;151.094;2024-01-27T00:38:22;8.30;;;1.40;;
20792;SDS011;10556;-33.662;151.094;2024-01-27T00:43:26;7.43;;;1.80;;
20792;SDS011;10556;-33.662;151.094;2024-01-27T00:48:29;9.97;;;1.97;;
20792;SDS011;10556;-33.662;151.094;2024-01-27T00:53:31;4.70;;;1.10;;
20792;SDS011;10556;-33.662;151.094;2024-01-27T00:58:36;7.30;;;1.33;;
20792;SDS011;10556;-33.662;151.094;2024-01-27T01:03:38;9.43;;;1.93;;
20792;SDS011;10556;-33.662;151.094;2024-01-27T01:08:41;6.53;;;1.73;;
20792;SDS011;10556;-33.662;151.094;2024-01-27T01:13:45;13.57;;;2.20;;
20792;SDS011;10556;-33.662;151.094;2024-01-27T01:18:47;12.93;;;1.93;;
20792;SDS011;10556;-33.662;151.094;2024-01-27T01:23:53;11.37;;;2.23;;
20792;SDS011;10556;-33.662;151.094;2024-01-27T01:28:57;8.23;;;1.40;;
20792;SDS011;10556;-33.662;151.094;2024-01-27T01:34:01;7.87;;;1.43;;
20792;SDS011;10556;-33.662;151.094;2024-01-27T01:39:03;11.93;;;1.87;;
20792;SDS011;10556;-33.662;151.094;2024-01-27T01:44:08;8.43;;;1.80;;
20792;SDS011;10556;-33.662;151.094;2024-01-27T01:49:11;8.57;;;1.20;;
20792;SDS011;10556;-33.662;151.094;2024-01-27T01:54:13;7.73;;;1.47;;
20792;SDS011;10556;-33.662;151.094;2024-01-27T01:59:21;13.23;;;2.20;;
20792;SDS011;10556;-33.662;151.094;2024-01-27T02:04:23;6.30;;;1.80;;
20792;SDS011;10556;-33.662;151.094;2024-01-27T02:09:26;10.40;;;2.17;;
20792;SDS011;10556;-33.662;151.094;2024-01-27T02:14:32;10.93;;;2.13;;
20792;SDS011;10556;-33.662;151.094;2024-01-27T02:19:35;7.07;;;1.67;;
20792;SDS011;10556;-33.662;151.094;2024-01-27T02:24:41;7.93;;;1.70;;
20792;SDS011;10556;-33.662;151.094;2024-01-27T02:29:43;8.17;;;1.67;;
20792;SDS011;10556;-33.662;151.094;2024-01-27T02:34:46;8.33;;;1.83;;
20792;SDS011;10556;-33.662;151.094;2024-01-27T02:39:50;12.60;;;2.67;;
20792;SDS011;10556;-33.662;151.094;2024-01-27T02:44:53;10.80;;;1.97;;
20792;SDS011;10556;-33.662;151.094;2024-01-27T02:49:55;12.07;;;2.20;;
20792;SDS011;10556;-33.662;151.094;2024-01-27T02:54:59;9.47;;;1.90;;
20792;SDS011;10556;-33.662;151.094;2024-01-27T03:00:02;10.87;;;1.70;;
20792;SDS011;10556;-33.662;151.094;2024-01-27T03:05:05;14.33;;;2.57;;
20792;SDS011;10556;-33.662;151.094;2024-01-27T03:10:10;15.20;;;2.20;;
20792;SDS011;10556;-33.662;151.094;2024-01-27T03:15:15;13.83;;;2.63;;
20792;SDS011;10556;-33.662;151.094;2024-01-27T03:20:18;13.47;;;1.93;;
20792;SDS011;10556;-33.662;151.094;2024-01-27T03:25:22;12.87;;;2.20;;
20792;SDS011;10556;-33.662;151.094;2024-01-27T03:30:25;14.30;;;2.63;;
20792;SDS011;10556;-33.662;151.094;2024-01-27T03:35:29;15.23;;;2.10;;
20792;SDS011;10556;-33.662;151.094;2024-01-27T03:40:33;13.80;;;2.07;;
20792;SDS011;10556;-33.662;151.094;2024-01-27T03:45:35;14.60;;;2.40;;
20792;SDS011;10556;-33.662;151.094;2024-01-27T03:50:38;11.20;;;2.57;;
20792;SDS011;10556;-33.662;151.094;2024-01-27T03:55:42;15.63;;;3.20;;
20792;SDS011;10556;-33.662;151.094;2024-01-27T04:00:45;14.63;;;2.00;;
20792;SDS011;10556;-33.662;151.094;2024-01-27T04:05:47;16.73;;;2.43;;
20792;SDS011;10556;-33.662;151.094;2024-01-27T04:10:52;10.87;;;1.93;;
20792;SDS011;10556;-33.662;151.094;2024-01-27T04:15:54;9.93;;;2.07;;
20792;SDS011;10556;-33.662;151.094;2024-01-27T04:20:57;15.43;;;2.13;;
20792;SDS011;10556;-33.662;151.094;2024-01-27T04:26:01;8.13;;;2.07;;
20792;SDS011;10556;-33.662;151.094;2024-01-27T04:31:04;12.23;;;2.30;;
20792;SDS011;10556;-33.662;151.094;2024-01-27T04:36:06;12.70;;;2.17;;
20792;SDS011;10556;-33.662;151.094;2024-01-27T04:41:11;13.17;;;2.43;;
20792;SDS011;10556;-33.662;151.094;2024-01-27T04:46:13;10.10;;;2.03;;
20792;SDS011;10556;-33.662;151.094;2024-01-27T04:51:16;12.50;;;2.07;;
20792;SDS011;10556;-33.662;151.094;2024-01-27T04:56:20;11.40;;;2.00;;
20792;SDS011;10556;-33.662;151.094;2024-01-27T05:01:26;14.10;;;1.77;;
20792;SDS011;10556;-33.662;151.094;2024-01-27T05:06:28;13.93;;;2.47;;
20792;SDS011;10556;-33.662;151.094;2024-01-27T05:11:34;16.73;;;2.63;;
20792;SDS011;10556;-33.662;151.094;2024-01-27T05:16:40;8.97;;;1.97;;
20792;SDS011;10556;-33.662;151.094;2024-01-27T05:21:45;8.50;;;1.70;;
20792;SDS011;10556;-33.662;151.094;2024-01-27T05:26:49;11.93;;;1.97;;
20792;SDS011;10556;-33.662;151.094;2024-01-27T05:31:54;9.80;;;1.87;;
20792;SDS011;10556;-33.662;151.094;2024-01-27T05:36:57;10.70;;;1.87;;
20792;SDS011;10556;-33.662;151.094;2024-01-27T05:42:02;14.63;;;2.60;;
20792;SDS011;10556;-33.662;151.094;2024-01-27T05:47:05;14.73;;;2.43;;
20792;SDS011;10556;-33.662;151.094;2024-01-27T05:52:07;11.67;;;2.83;;
20792;SDS011;10556;-33.662;151.094;2024-01-27T05:57:12;12.07;;;2.03;;
20792;SDS011;10556;-33.662;151.094;2024-01-27T06:02:14;16.43;;;2.67;;
20792;SDS011;10556;-33.662;151.094;2024-01-27T06:07:17;16.80;;;3.03;;
20792;SDS011;10556;-33.662;151.094;2024-01-27T06:12:21;14.17;;;2.27;;
20792;SDS011;10556;-33.662;151.094;2024-01-27T06:17:24;17.73;;;2.50;;
20792;SDS011;10556;-33.662;151.094;2024-01-27T06:22:29;17.10;;;2.97;;
20792;SDS011;10556;-33.662;151.094;2024-01-27T06:27:33;15.57;;;2.67;;
20792;SDS011;10556;-33.662;151.094;2024-01-27T06:32:36;11.43;;;2.40;;
20792;SDS011;10556;-33.662;151.094;2024-01-27T06:37:39;14.67;;;2.67;;
20792;SDS011;10556;-33.662;151.094;2024-01-27T06:42:43;13.73;;;2.43;;
20792;SDS011;10556;-33.662;151.094;2024-01-27T06:47:46;17.33;;;2.97;;
20792;SDS011;10556;-33.662;151.094;2024-01-27T06:52:48;13.47;;;2.70;;
20792;SDS011;10556;-33.662;151.094;2024-01-27T06:57:53;12.80;;;2.03;;
20792;SDS011;10556;-33.662;151.094;2024-01-27T07:02:57;15.93;;;3.10;;
20792;SDS011;10556;-33.662;151.094;2024-01-27T07:08:00;12.73;;;2.23;;
20792;SDS011;10556;-33.662;151.094;2024-01-27T07:13:04;16.00;;;2.83;;
20792;SDS011;10556;-33.662;151.094;2024-01-27T07:18:10;12.40;;;2.20;;
20792;SDS011;10556;-33.662;151.094;2024-01-27T07:23:19;20.03;;;3.60;;
20792;SDS011;10556;-33.662;151.094;2024-01-27T07:28:23;15.70;;;2.20;;
20792;SDS011;10556;-33.662;151.094;2024-01-27T07:33:25;10.07;;;2.00;;
20792;SDS011;10556;-33.662;151.094;2024-01-27T07:38:28;14.63;;;2.87;;
20792;SDS011;10556;-33.662;151.094;2024-01-27T07:43:32;15.67;;;2.70;;
20792;SDS011;10556;-33.662;151.094;2024-01-27T07:48:38;16.77;;;3.03;;
20792;SDS011;10556;-33.662;151.094;2024-01-27T07:53:40;13.17;;;2.40;;
20792;SDS011;10556;-33.662;151.094;2024-01-27T07:58:45;11.70;;;2.93;;
20792;SDS011;10556;-33.662;151.094;2024-01-27T08:03:48;20.87;;;3.13;;
20792;SDS011;10556;-33.662;151.094;2024-01-27T08:08:51;15.83;;;3.00;;
20792;SDS011;10556;-33.662;151.094;2024-01-27T08:13:55;9.90;;;1.77;;
20792;SDS011;10556;-33.662;151.094;2024-01-27T08:19:00;17.37;;;2.43;;
20792;SDS011;10556;-33.662;151.094;2024-01-27T08:24:03;13.93;;;2.33;;
20792;SDS011;10556;-33.662;151.094;2024-01-27T08:29:08;11.30;;;2.83;;
20792;SDS011;10556;-33.662;151.094;2024-01-27T08:34:10;11.00;;;1.93;;
20792;SDS011;10556;-33.662;151.094;2024-01-27T08:39:13;13.27;;;2.77;;
20792;SDS011;10556;-33.662;151.094;2024-01-27T08:44:18;16.13;;;2.20;;
20792;SDS011;10556;-33.662;151.094;2024-01-27T08:49:21;11.23;;;1.83;;
20792;SDS011;10556;-33.662;151.094;2024-01-27T08:54:23;11.77;;;2.37;;
20792;SDS011;10556;-33.662;151.094;2024-01-27T08:59:28;14.33;;;3.13;;
20792;SDS011;10556;-33.662;151.094;2024-01-27T09:04:33;7.83;;;1.90;;
20792;SDS011;10556;-33.662;151.094;2024-01-27T09:09:36;12.90;;;1.70;;
20792;SDS011;10556;-33.662;151.094;2024-01-27T09:14:41;13.97;;;1.73;;
20792;SDS011;10556;-33.662;151.094;2024-01-27T09:19:43;12.33;;;2.27;;
20792;SDS011;10556;-33.662;151.094;2024-01-27T09:24:46;7.90;;;1.97;;
20792;SDS011;10556;-33.662;151.094;2024-01-27T09:29:51;14.50;;;2.27;;
20792;SDS011;10556;-33.662;151.094;2024-01-27T09:34:54;6.27;;;1.50;;
20792;SDS011;10556;-33.662;151.094;2024-01-27T09:39:56;9.40;;;1.97;;
20792;SDS011;10556;-33.662;151.094;2024-01-27T09:45:00;12.70;;;1.97;;
20792;SDS011;10556;-33.662;151.094;2024-01-27T09:50:06;8.60;;;2.00;;
20792;SDS011;10556;-33.662;151.094;2024-01-27T09:55:12;12.90;;;2.00;;
20792;SDS011;10556;-33.662;151.094;2024-01-27T10:00:18;15.27;;;2.67;;
20792;SDS011;10556;-33.662;151.094;2024-01-27T10:05:28;16.73;;;2.50;;
20792;SDS011;10556;-33.662;151.094;2024-01-27T10:10:32;12.03;;;2.00;;
20792;SDS011;10556;-33.662;151.094;2024-01-27T10:15:36;15.03;;;2.47;;
20792;SDS011;10556;-33.662;151.094;2024-01-27T10:20:39;14.77;;;2.80;;
20792;SDS011;10556;-33.662;151.094;2024-01-27T10:25:42;11.80;;;2.70;;
20792;SDS011;10556;-33.662;151.094;2024-01-27T10:30:47;9.67;;;1.90;;
20792;SDS011;10556;-33.662;151.094;2024-01-27T10:35:57;13.03;;;2.10;;
20792;SDS011;10556;-33.662;151.094;2024-01-27T10:40:59;13.47;;;2.37;;
20792;SDS011;10556;-33.662;151.094;2024-01-27T10:46:07;18.30;;;2.20;;
20792;SDS011;10556;-33.662;151.094;2024-01-27T10:51:10;18.50;;;2.57;;
20792;SDS011;10556;-33.662;151.094;2024-01-27T10:56:17;21.43;;;2.63;;
20792;SDS011;10556;-33.662;151.094;2024-01-27T11:01:22;15.70;;;2.70;;
20792;SDS011;10556;-33.662;151.094;2024-01-27T11:06:25;9.63;;;2.03;;
20792;SDS011;10556;-33.662;151.094;2024-01-27T11:11:30;13.13;;;1.93;;
20792;SDS011;10556;-33.662;151.094;2024-01-27T11:16:35;12.10;;;2.57;;
20792;SDS011;10556;-33.662;151.094;2024-01-27T11:21:38;10.23;;;2.20;;
20792;SDS011;10556;-33.662;151.094;2024-01-27T11:26:40;14.07;;;2.37;;
20792;SDS011;10556;-33.662;151.094;2024-01-27T11:31:45;12.67;;;2.27;;
20792;SDS011;10556;-33.662;151.094;2024-01-27T11:36:47;18.37;;;3.40;;
20792;SDS011;10556;-33.662;151.094;2024-01-27T11:41:50;19.53;;;2.57;;
20792;SDS011;10556;-33.662;151.094;2024-01-27T11:46:54;15.60;;;2.83;;
20792;SDS011;10556;-33.662;151.094;2024-01-27T11:51:57;14.80;;;2.90;;
20792;SDS011;10556;-33.662;151.094;2024-01-27T11:57:00;13.70;;;2.40;;
20792;SDS011;10556;-33.662;151.094;2024-01-27T12:02:05;14.43;;;2.67;;
20792;SDS011;10556;-33.662;151.094;2024-01-27T12:07:10;12.93;;;2.30;;
20792;SDS011;10556;-33.662;151.094;2024-01-27T12:12:13;15.57;;;3.00;;
20792;SDS011;10556;-33.662;151.094;2024-01-27T12:17:17;17.23;;;2.67;;
20792;SDS011;10556;-33.662;151.094;2024-01-27T12:22:22;14.20;;;2.90;;
20792;SDS011;10556;-33.662;151.094;2024-01-27T12:27:25;15.50;;;2.10;;
20792;SDS011;10556;-33.662;151.094;2024-01-27T12:32:34;13.23;;;2.30;;
20792;SDS011;10556;-33.662;151.094;2024-01-27T12:37:36;13.77;;;2.00;;
20792;SDS011;10556;-33.662;151.094;2024-01-27T12:42:39;17.40;;;2.57;;
20792;SDS011;10556;-33.662;151.094;2024-01-27T12:47:43;12.23;;;1.97;;
20792;SDS011;10556;-33.662;151.094;2024-01-27T12:52:46;16.07;;;2.60;;
20792;SDS011;10556;-33.662;151.094;2024-01-27T12:57:48;13.23;;;2.30;;
20792;SDS011;10556;-33.662;151.094;2024-01-27T13:02:53;16.90;;;3.63;;
20792;SDS011;10556;-33.662;151.094;2024-01-27T13:07:55;24.43;;;2.97;;
20792;SDS011;10556;-33.662;151.094;2024-01-27T13:12:58;20.50;;;2.50;;
20792;SDS011;10556;-33.662;151.094;2024-01-27T13:18:02;14.37;;;2.93;;
20792;SDS011;10556;-33.662;151.094;2024-01-27T13:23:05;22.10;;;3.00;;
20792;SDS011;10556;-33.662;151.094;2024-01-27T13:28:08;13.23;;;2.07;;
20792;SDS011;10556;-33.662;151.094;2024-01-27T13:33:12;17.30;;;2.40;;
20792;SDS011;10556;-33.662;151.094;2024-01-27T13:38:14;21.63;;;3.40;;
20792;SDS011;10556;-33.662;151.094;2024-01-27T13:43:17;16.60;;;2.60;;
20792;SDS011;10556;-33.662;151.094;2024-01-27T13:48:24;20.27;;;3.10;;
20792;SDS011;10556;-33.662;151.094;2024-01-27T13:53:27;31.77;;;3.93;;
20792;SDS011;10556;-33.662;151.094;2024-01-27T13:58:32;25.93;;;2.90;;
20792;SDS011;10556;-33.662;151.094;2024-01-27T14:03:36;15.23;;;2.50;;
20792;SDS011;10556;-33.662;151.094;2024-01-27T14:08:40;17.40;;;3.00;;
20792;SDS011;10556;-33.662;151.094;2024-01-27T14:13:43;24.87;;;4.83;;
20792;SDS011;10556;-33.662;151.094;2024-01-27T14:18:47;22.77;;;5.13;;
20792;SDS011;10556;-33.662;151.094;2024-01-27T14:23:49;10.87;;;3.50;;
20792;SDS011;10556;-33.662;151.094;2024-01-27T14:28:52;8.80;;;3.40;;
20792;SDS011;10556;-33.662;151.094;2024-01-27T14:33:57;17.07;;;4.80;;
20792;SDS011;10556;-33.662;151.094;2024-01-27T14:38:59;8.00;;;2.77;;
20792;SDS011;10556;-33.662;151.094;2024-01-27T14:44:02;9.90;;;3.13;;
20792;SDS011;10556;-33.662;151.094;2024-01-27T14:49:07;24.93;;;5.13;;
20792;SDS011;10556;-33.662;151.094;2024-01-27T14:54:10;19.83;;;5.20;;
20792;SDS011;10556;-33.662;151.094;2024-01-27T14:59:12;5.83;;;3.87;;
20792;SDS011;10556;-33.662;151.094;2024-01-27T15:04:17;7.77;;;3.30;;
20792;SDS011;10556;-33.662;151.094;2024-01-27T15:09:19;5.50;;;3.20;;
20792;SDS011;10556;-33.662;151.094;2024-01-27T15:14:26;8.47;;;3.80;;
20792;SDS011;10556;-33.662;151.094;2024-01-27T15:19:30;31.33;;;7.87;;
20792;SDS011;10556;-33.662;151.094;2024-01-27T15:24:33;21.77;;;6.40;;
20792;SDS011;10556;-33.662;151.094;2024-01-27T15:29:35;13.07;;;5.37;;
20792;SDS011;10556;-33.662;151.094;2024-01-27T15:34:40;21.03;;;6.47;;
20792;SDS011;10556;-33.662;151.094;2024-01-27T15:39:42;22.60;;;7.40;;
20792;SDS011;10556;-33.662;151.094;2024-01-27T15:44:45;23.50;;;7.90;;
20792;SDS011;10556;-33.662;151.094;2024-01-27T15:49:50;19.53;;;6.50;;
20792;SDS011;10556;-33.662;151.094;2024-01-27T15:54:52;25.27;;;6.13;;
20792;SDS011;10556;-33.662;151.094;2024-01-27T15:59:55;17.27;;;6.30;;
20792;SDS011;10556;-33.662;151.094;2024-01-27T16:04:59;16.57;;;7.23;;
20792;SDS011;10556;-33.662;151.094;2024-01-27T16:10:02;14.77;;;5.63;;
20792;SDS011;10556;-33.662;151.094;2024-01-27T16:15:05;18.10;;;7.23;;
20792;SDS011;10556;-33.662;151.094;2024-01-27T16:20:11;22.90;;;7.57;;
20792;SDS011;10556;-33.662;151.094;2024-01-27T16:25:13;15.60;;;6.93;;
20792;SDS011;10556;-33.662;151.094;2024-01-27T16:30:16;23.70;;;9.00;;
20792;SDS011;10556;-33.662;151.094;2024-01-27T16:35:21;20.47;;;8.60;;
20792;SDS011;10556;-33.662;151.094;2024-01-27T16:40:26;38.23;;;9.73;;
20792;SDS011;10556;-33.662;151.094;2024-01-27T16:45:28;22.53;;;8.50;;
20792;SDS011;10556;-33.662;151.094;2024-01-27T16:50:33;18.63;;;7.57;;
20792;SDS011;10556;-33.662;151.094;2024-01-27T16:55:37;18.77;;;7.33;;
20792;SDS011;10556;-33.662;151.094;2024-01-27T17:00:40;16.13;;;7.10;;
20792;SDS011;10556;-33.662;151.094;2024-01-27T17:05:54;23.10;;;6.60;;
20792;SDS011;10556;-33.662;151.094;2024-01-27T17:10:57;14.30;;;5.17;;
20792;SDS011;10556;-33.662;151.094;2024-01-27T17:16:00;21.30;;;6.93;;
20792;SDS011;10556;-33.662;151.094;2024-01-27T17:21:04;23.97;;;7.83;;
20792;SDS011;10556;-33.662;151.094;2024-01-27T17:26:07;26.57;;;7.97;;
20792;SDS011;10556;-33.662;151.094;2024-01-27T17:31:09;16.63;;;6.97;;
20792;SDS011;10556;-33.662;151.094;2024-01-27T17:36:14;13.20;;;6.00;;
20792;SDS011;10556;-33.662;151.094;2024-01-27T17:41:16;18.20;;;5.40;;
20792;SDS011;10556;-33.662;151.094;2024-01-27T17:46:19;21.17;;;6.60;;
20792;SDS011;10556;-33.662;151.094;2024-01-27T17:51:23;19.60;;;6.33;;
20792;SDS011;10556;-33.662;151.094;2024-01-27T17:56:26;19.13;;;6.80;;
20792;SDS011;10556;-33.662;151.094;2024-01-27T18:01:28;12.80;;;5.20;;
20792;SDS011;10556;-33.662;151.094;2024-01-27T18:06:33;8.73;;;4.90;;
20792;SDS011;10556;-33.662;151.094;2024-01-27T18:11:35;33.33;;;7.37;;
20792;SDS011;10556;-33.662;151.094;2024-01-27T18:16:38;33.80;;;9.43;;
20792;SDS011;10556;-33.662;151.094;2024-01-27T18:21:42;21.37;;;6.80;;
20792;SDS011;10556;-33.662;151.094;2024-01-27T18:26:45;26.83;;;8.10;;
20792;SDS011;10556;-33.662;151.094;2024-01-27T18:31:47;33.73;;;10.27;;
20792;SDS011;10556;-33.662;151.094;2024-01-27T18:36:52;29.07;;;8.93;;
20792;SDS011;10556;-33.662;151.094;2024-01-27T18:41:54;23.73;;;7.37;;
20792;SDS011;10556;-33.662;151.094;2024-01-27T18:46:57;25.97;;;7.83;;
20792;SDS011;10556;-33.662;151.094;2024-01-27T18:52:02;25.97;;;10.10;;
20792;SDS011;10556;-33.662;151.094;2024-01-27T18:57:05;36.50;;;9.27;;
20792;SDS011;10556;-33.662;151.094;2024-01-27T19:02:07;45.40;;;14.07;;
20792;SDS011;10556;-33.662;151.094;2024-01-27T19:07:12;53.63;;;16.50;;
20792;SDS011;10556;-33.662;151.094;2024-01-27T19:12:14;70.60;;;16.40;;
20792;SDS011;10556;-33.662;151.094;2024-01-27T19:17:17;81.27;;;17.50;;
20792;SDS011;10556;-33.662;151.094;2024-01-27T19:22:22;70.27;;;16.83;;
20792;SDS011;10556;-33.662;151.094;2024-01-27T19:27:24;81.10;;;16.53;;
20792;SDS011;10556;-33.662;151.094;2024-01-27T19:32:27;71.13;;;14.73;;
20792;SDS011;10556;-33.662;151.094;2024-01-27T19:37:31;113.93;;;16.50;;
20792;SDS011;10556;-33.662;151.094;2024-01-27T19:42:33;109.40;;;15.37;;
20792;SDS011;10556;-33.662;151.094;2024-01-27T19:47:36;189.73;;;17.23;;
20792;SDS011;10556;-33.662;151.094;2024-01-27T19:52:40;73.40;;;13.10;;
20792;SDS011;10556;-33.662;151.094;2024-01-27T19:57:43;45.10;;;12.23;;
20792;SDS011;10556;-33.662;151.094;2024-01-27T20:02:45;88.60;;;14.97;;
20792;SDS011;10556;-33.662;151.094;2024-01-27T20:07:50;78.97;;;12.17;;
20792;SDS011;10556;-33.662;151.094;2024-01-27T20:12:52;211.10;;;14.77;;
20792;SDS011;10556;-33.662;151.094;2024-01-27T20:17:55;33.60;;;11.43;;
20792;SDS011;10556;-33.662;151.094;2024-01-27T20:23:00;40.20;;;11.77;;
20792;SDS011;10556;-33.662;151.094;2024-01-27T20:28:02;78.43;;;14.60;;
20792;SDS011;10556;-33.662;151.094;2024-01-27T20:33:06;61.43;;;13.93;;
20792;SDS011;10556;-33.662;151.094;2024-01-27T20:38:10;59.77;;;14.57;;
20792;SDS011;10556;-33.662;151.094;2024-01-27T20:43:13;61.43;;;14.97;;
20792;SDS011;10556;-33.662;151.094;2024-01-27T20:48:15;46.37;;;12.73;;
20792;SDS011;10556;-33.662;151.094;2024-01-27T20:53:20;44.37;;;13.47;;
20792;SDS011;10556;-33.662;151.094;2024-01-27T20:58:22;41.33;;;12.00;;
20792;SDS011;10556;-33.662;151.094;2024-01-27T21:03:26;37.77;;;12.30;;
20792;SDS011;10556;-33.662;151.094;2024-01-27T21:08:30;48.00;;;12.20;;
20792;SDS011;10556;-33.662;151.094;2024-01-27T21:13:32;43.73;;;13.77;;
20792;SDS011;10556;-33.662;151.094;2024-01-27T21:18:35;41.80;;;12.97;;
20792;SDS011;10556;-33.662;151.094;2024-01-27T21:23:39;38.20;;;12.50;;
20792;SDS011;10556;-33.662;151.094;2024-01-27T21:28:42;35.23;;;11.57;;
20792;SDS011;10556;-33.662;151.094;2024-01-27T21:33:45;40.07;;;11.13;;
20792;SDS011;10556;-33.662;151.094;2024-01-27T21:38:50;29.07;;;9.67;;
20792;SDS011;10556;-33.662;151.094;2024-01-27T21:43:52;29.63;;;9.97;;
20792;SDS011;10556;-33.662;151.094;2024-01-27T21:48:55;37.23;;;10.20;;
20792;SDS011;10556;-33.662;151.094;2024-01-27T21:53:59;29.07;;;8.50;;
20792;SDS011;10556;-33.662;151.094;2024-01-27T21:59:02;26.30;;;8.20;;
20792;SDS011;10556;-33.662;151.094;2024-01-27T22:04:04;25.33;;;7.33;;
20792;SDS011;10556;-33.662;151.094;2024-01-27T22:09:12;18.67;;;6.00;;
20792;SDS011;10556;-33.662;151.094;2024-01-27T22:14:14;16.77;;;4.97;;
20792;SDS011;10556;-33.662;151.094;2024-01-27T22:19:17;18.33;;;4.77;;
20792;SDS011;10556;-33.662;151.094;2024-01-27T22:24:21;18.60;;;4.70;;
20792;SDS011;10556;-33.662;151.094;2024-01-27T22:29:24;14.07;;;4.27;;
20792;SDS011;10556;-33.662;151.094;2024-01-27T22:34:26;10.20;;;3.33;;
20792;SDS011;10556;-33.662;151.094;2024-01-27T22:39:30;12.60;;;3.57;;
20792;SDS011;10556;-33.662;151.094;2024-01-27T22:44:35;12.83;;;4.67;;
20792;SDS011;10556;-33.662;151.094;2024-01-27T22:49:38;15.03;;;3.60;;
20792;SDS011;10556;-33.662;151.094;2024-01-27T22:54:42;8.93;;;3.37;;
20792;SDS011;10556;-33.662;151.094;2024-01-27T22:59:45;11.97;;;4.00;;
20792;SDS011;10556;-33.662;151.094;2024-01-27T23:04:47;13.07;;;3.50;;
20792;SDS011;10556;-33.662;151.094;2024-01-27T23:09:51;6.40;;;3.30;;
20792;SDS011;10556;-33.662;151.094;2024-01-27T23:14:54;10.27;;;3.50;;
20792;SDS011;10556;-33.662;151.094;2024-01-27T23:19:56;12.97;;;4.43;;
20792;SDS011;10556;-33.662;151.094;2024-01-27T23:25:01;11.87;;;4.60;;
20792;SDS011;10556;-33.662;151.094;2024-01-27T23:30:04;12.07;;;3.77;;
20792;SDS011;10556;-33.662;151.094;2024-01-27T23:35:07;17.70;;;4.33;;
20792;SDS011;10556;-33.662;151.094;2024-01-27T23:40:12;8.07;;;4.50;;
20792;SDS011;10556;-33.662;151.094;2024-01-27T23:45:15;10.93;;;4.17;;
20792;SDS011;10556;-33.662;151.094;2024-01-27T23:50:17;13.60;;;4.13;;
20792;SDS011;10556;-33.662;151.094;2024-01-27T23:55:22;11.82;;;3.80;;
